Time;durP1;ratioP1;P1;durP2;ratioP2;P2;SDS_P1;SDS_P2;PMS_P1;PMS_P2;Temp;Humidity;BMP_temperature;BMP_pressure;BME280_temperature;BME280_humidity;BME280_pressure;Samples;Min_cycle;Max_cycle;Signal;HPM_P1;HPM_P2
2020/12/19 00:00:00;;;;;;;18.33;11.47;;;;;;;;;;4348313;33;20223;-86
2020/12/19 00:02:33;;;;;;;20.47;12.53;;;;;;;;;;4347918;33;20163;-85
2020/12/19 00:05:01;;;;;;;18.67;11.80;;;;;;;;;;4347812;33;20218;-84
2020/12/19 00:07:27;;;;;;;21.10;12.57;;;;;;;;;;4347997;33;20159;-86
2020/12/19 00:09:58;;;;;;;22.97;13.37;;;;;;;;;;4360091;33;20186;-85
2020/12/19 00:12:26;;;;;;;22.17;12.43;;;;;;;;;;4359997;32;20163;-86
2020/12/19 00:14:56;;;;;;;22.47;13.47;;;;;;;;;;4360868;33;20155;-86
2020/12/19 00:17:22;;;;;;;20.47;12.37;;;;;;;;;;4347657;33;20163;-85
2020/12/19 00:19:52;;;;;;;22.07;13.77;;;;;;;;;;4347868;33;20217;-85
2020/12/19 00:22:21;;;;;;;26.40;13.20;;;;;;;;;;4348209;33;20186;-86
2020/12/19 00:25:14;;;;;;;22.33;14.23;;;;;;;;;;4344885;33;20600;-86
2020/12/19 00:27:39;;;;;;;23.93;13.47;;;;;;;;;;4349182;33;20163;-86
2020/12/19 00:30:05;;;;;;;25.93;14.93;;;;;;;;;;4347109;33;20516;-85
2020/12/19 00:32:33;;;;;;;26.57;14.27;;;;;;;;;;4346870;33;20234;-85
2020/12/19 00:35:04;;;;;;;26.17;15.43;;;;;;;;;;4347158;33;20179;-85
2020/12/19 00:37:29;;;;;;;26.43;15.13;;;;;;;;;;4361348;32;20127;-86
2020/12/19 00:39:54;;;;;;;25.03;14.63;;;;;;;;;;4347281;33;20202;-85
2020/12/19 00:42:20;;;;;;;23.23;14.27;;;;;;;;;;4346830;33;20552;-85
2020/12/19 00:44:45;;;;;;;27.20;14.67;;;;;;;;;;4347170;33;20584;-85
2020/12/19 00:47:13;;;;;;;25.57;14.40;;;;;;;;;;4347346;33;20224;-85
2020/12/19 00:49:41;;;;;;;25.50;15.10;;;;;;;;;;4347860;33;20159;-85
2020/12/19 00:52:11;;;;;;;28.47;15.50;;;;;;;;;;4347670;33;20537;-86
2020/12/19 00:54:39;;;;;;;26.60;15.00;;;;;;;;;;4347901;33;20208;-85
2020/12/19 00:57:15;;;;;;;26.93;13.83;;;;;;;;;;4360443;32;20154;-85
2020/12/19 00:59:46;;;;;;;23.60;13.93;;;;;;;;;;4360940;33;20127;-85
2020/12/19 01:02:22;;;;;;;26.13;15.53;;;;;;;;;;4347446;33;20189;-87
2020/12/19 01:04:55;;;;;;;27.47;15.00;;;;;;;;;;4347501;33;20572;-85
2020/12/19 01:07:29;;;;;;;28.90;15.50;;;;;;;;;;4347156;33;20594;-85
2020/12/19 01:09:54;;;;;;;27.17;15.10;;;;;;;;;;4347045;33;20197;-85
2020/12/19 01:12:19;;;;;;;29.40;15.93;;;;;;;;;;4348151;33;20186;-85
2020/12/19 01:15:05;;;;;;;;;;;;;;;;;;;;;
2020/12/19 01:17:47;;;;;;;27.53;15.40;;;;;;;;;;4335361;33;20220;-86
2020/12/19 01:20:15;;;;;;;27.30;15.53;;;;;;;;;;4352231;33;20170;-85
2020/12/19 01:22:43;;;;;;;27.13;15.10;;;;;;;;;;4350413;33;20548;-85
2020/12/19 01:25:09;;;;;;;27.07;15.37;;;;;;;;;;4346795;33;20163;-85
2020/12/19 01:27:36;;;;;;;24.70;14.63;;;;;;;;;;4360482;32;20161;-85
2020/12/19 01:30:04;;;;;;;28.70;15.40;;;;;;;;;;4346607;33;20210;-86
2020/12/19 01:32:59;;;;;;;34.43;16.30;;;;;;;;;;4346927;33;20245;-85
2020/12/19 01:35:48;;;;;;;27.73;15.27;;;;;;;;;;4349127;33;20188;-85
2020/12/19 01:38:16;;;;;;;30.53;14.70;;;;;;;;;;4363218;33;20548;-87
2020/12/19 01:40:57;;;;;;;31.97;15.57;;;;;;;;;;4346458;33;20189;-85
2020/12/19 01:43:27;;;;;;;27.63;15.20;;;;;;;;;;4360665;33;20131;-84
2020/12/19 01:45:58;;;;;;;28.53;15.50;;;;;;;;;;4347210;33;20598;-84
2020/12/19 01:48:24;;;;;;;30.07;15.27;;;;;;;;;;4347933;33;20163;-83
2020/12/19 01:50:53;;;;;;;26.30;14.63;;;;;;;;;;4346944;33;20237;-85
2020/12/19 01:53:19;;;;;;;27.03;14.53;;;;;;;;;;4346948;33;20163;-85
2020/12/19 01:55:45;;;;;;;27.17;14.07;;;;;;;;;;4363109;32;20147;-85
2020/12/19 01:58:19;;;;;;;29.33;14.53;;;;;;;;;;4349290;33;20256;-85
2020/12/19 02:00:58;;;;;;;27.33;13.37;;;;;;;;;;4349443;33;20175;-85
2020/12/19 02:03:49;;;;;;;25.73;14.47;;;;;;;;;;4349500;33;20159;-85
2020/12/19 02:06:49;;;;;;;28.37;15.30;;;;;;;;;;4349840;32;20158;-85
2020/12/19 02:09:38;;;;;;;25.07;13.50;;;;;;;;;;4349748;32;20205;-86
2020/12/19 02:12:28;;;;;;;;;;;;;;;;;;;;;
2020/12/19 02:14:58;;;;;;;23.67;12.77;;;;;;;;;;4362574;32;20506;-85
2020/12/19 02:17:36;;;;;;;25.80;12.67;;;;;;;;;;4349085;33;20162;-85
2020/12/19 02:20:12;;;;;;;22.27;13.10;;;;;;;;;;4349075;33;20160;-85
2020/12/19 02:22:43;;;;;;;22.97;13.83;;;;;;;;;;4348695;33;20167;-85
2020/12/19 02:25:11;;;;;;;29.57;13.30;;;;;;;;;;4349589;33;20158;-86
2020/12/19 02:27:40;;;;;;;28.93;15.00;;;;;;;;;;4348910;33;20170;-85
2020/12/19 02:30:13;;;;;;;26.37;14.17;;;;;;;;;;4349017;33;20166;-85
2020/12/19 02:32:44;;;;;;;23.33;13.40;;;;;;;;;;4348964;33;20193;-85
2020/12/19 02:35:14;;;;;;;22.77;13.07;;;;;;;;;;4349250;33;20159;-85
2020/12/19 02:37:45;;;;;;;24.50;13.73;;;;;;;;;;4348956;33;20209;-85
2020/12/19 02:40:33;;;;;;;25.47;13.07;;;;;;;;;;4349021;33;20276;-85
2020/12/19 02:43:01;;;;;;;28.53;14.93;;;;;;;;;;4348770;33;20198;-85
2020/12/19 02:45:29;;;;;;;28.43;14.73;;;;;;;;;;4348671;33;20186;-85
2020/12/19 02:48:31;;;;;;;29.90;15.07;;;;;;;;;;4348745;33;20500;-85
2020/12/19 02:50:59;;;;;;;28.90;14.30;;;;;;;;;;4349049;33;20170;-85
2020/12/19 02:53:26;;;;;;;29.10;15.47;;;;;;;;;;4348522;33;20218;-86
2020/12/19 02:55:56;;;;;;;28.07;14.93;;;;;;;;;;4348248;33;20629;-85
2020/12/19 02:58:22;;;;;;;26.50;14.33;;;;;;;;;;4349037;33;20159;-85
2020/12/19 03:00:50;;;;;;;25.73;14.50;;;;;;;;;;4348304;33;20238;-85
2020/12/19 03:03:18;;;;;;;28.20;14.60;;;;;;;;;;4348870;33;20619;-85
2020/12/19 03:05:43;;;;;;;28.07;13.73;;;;;;;;;;4347911;33;20197;-85
2020/12/19 03:08:12;;;;;;;26.83;14.17;;;;;;;;;;4348427;33;20171;-85
2020/12/19 03:10:42;;;;;;;25.37;13.77;;;;;;;;;;4348271;33;20170;-85
2020/12/19 03:13:15;;;;;;;24.63;13.80;;;;;;;;;;4348070;33;20175;-85
2020/12/19 03:15:41;;;;;;;25.50;14.03;;;;;;;;;;4347835;33;20199;-85
2020/12/19 03:18:14;;;;;;;31.70;16.20;;;;;;;;;;4348258;33;20240;-85
2020/12/19 03:20:45;;;;;;;28.67;16.00;;;;;;;;;;4348419;33;20163;-85
2020/12/19 03:23:10;;;;;;;28.17;14.80;;;;;;;;;;4362442;32;20175;-85
2020/12/19 03:25:41;;;;;;;27.97;14.77;;;;;;;;;;4348077;33;20236;-85
2020/12/19 03:28:11;;;;;;;30.10;15.50;;;;;;;;;;4361563;33;20159;-85
2020/12/19 03:30:42;;;;;;;25.77;13.80;;;;;;;;;;4348171;33;20266;-85
2020/12/19 03:33:08;;;;;;;29.50;15.10;;;;;;;;;;4348866;33;20168;-85
2020/12/19 03:35:41;;;;;;;29.93;15.50;;;;;;;;;;4348320;33;20498;-85
2020/12/19 03:38:21;;;;;;;26.20;15.33;;;;;;;;;;4348535;33;20182;-85
2020/12/19 03:41:02;;;;;;;29.70;14.50;;;;;;;;;;4348496;33;20171;-85
2020/12/19 03:43:37;;;;;;;26.37;14.43;;;;;;;;;;4348081;33;20185;-85
2020/12/19 03:46:41;;;;;;;;;;;;;;;;;;;;;
2020/12/19 03:49:26;;;;;;;27.70;14.77;;;;;;;;;;4363775;32;20185;-86
2020/12/19 03:51:52;;;;;;;26.60;14.43;;;;;;;;;;4353739;33;20587;-85
2020/12/19 03:54:30;;;;;;;26.60;14.60;;;;;;;;;;4348361;33;20163;-84
2020/12/19 03:56:56;;;;;;;24.77;13.43;;;;;;;;;;4336373;33;20175;-84
2020/12/19 03:59:26;;;;;;;29.23;15.20;;;;;;;;;;4347794;33;20208;-85
2020/12/19 04:01:54;;;;;;;26.60;13.70;;;;;;;;;;4347988;33;20162;-85
2020/12/19 04:04:40;;;;;;;25.97;13.57;;;;;;;;;;4361245;33;20600;-86
2020/12/19 04:07:08;;;;;;;25.10;14.07;;;;;;;;;;4348132;32;20190;-85
2020/12/19 04:09:46;;;;;;;24.63;13.80;;;;;;;;;;4360991;32;20150;-85
2020/12/19 04:12:16;;;;;;;25.60;13.17;;;;;;;;;;4347950;33;20162;-85
2020/12/19 04:14:53;;;;;;;25.77;13.63;;;;;;;;;;4360348;32;20151;-85
2020/12/19 04:23:25;;;;;;;28.27;13.20;;;;;;;;;;4349222;33;20184;-85
2020/12/19 04:26:04;;;;;;;23.33;12.57;;;;;;;;;;4361611;32;20162;-84
2020/12/19 04:28:44;;;;;;;22.47;12.87;;;;;;;;;;4347148;33;20190;-85
2020/12/19 04:31:21;;;;;;;22.33;12.90;;;;;;;;;;4347483;33;20155;-85
2020/12/19 04:33:55;;;;;;;26.17;14.10;;;;;;;;;;4347748;33;20599;-85
2020/12/19 04:36:26;;;;;;;24.23;13.63;;;;;;;;;;4347227;33;20305;-85
2020/12/19 04:39:10;;;;;;;27.00;14.13;;;;;;;;;;4347254;33;20160;-85
2020/12/19 04:41:46;;;;;;;25.53;12.73;;;;;;;;;;4347314;33;20177;-85
2020/12/19 04:44:17;;;;;;;24.63;12.90;;;;;;;;;;4347702;33;20169;-85
2020/12/19 04:46:45;;;;;;;23.97;12.77;;;;;;;;;;4347570;33;20162;-85
2020/12/19 04:49:11;;;;;;;25.80;13.13;;;;;;;;;;4362269;32;20179;-85
2020/12/19 04:51:39;;;;;;;25.80;13.33;;;;;;;;;;4353382;33;20163;-85
2020/12/19 04:54:09;;;;;;;25.50;13.57;;;;;;;;;;4353282;33;20158;-85
2020/12/19 04:56:37;;;;;;;25.10;13.47;;;;;;;;;;4353592;33;20206;-85
2020/12/19 04:59:11;;;;;;;24.17;12.80;;;;;;;;;;4367281;32;20159;-86
2020/12/19 05:01:41;;;;;;;25.70;13.17;;;;;;;;;;4350676;33;20170;-86
2020/12/19 05:04:22;;;;;;;23.40;12.87;;;;;;;;;;4347466;33;20151;-85
2020/12/19 05:06:53;;;;;;;24.77;12.83;;;;;;;;;;4352303;33;20173;-85
2020/12/19 05:09:18;;;;;;;23.50;12.50;;;;;;;;;;4355007;33;20178;-85
2020/12/19 05:11:46;;;;;;;21.57;12.60;;;;;;;;;;4347147;33;20178;-85
2020/12/19 05:14:16;;;;;;;23.77;12.87;;;;;;;;;;4346673;33;20220;-85
2020/12/19 05:16:46;;;;;;;20.83;11.80;;;;;;;;;;4346577;33;20164;-86
2020/12/19 05:19:23;;;;;;;18.43;11.40;;;;;;;;;;4359121;33;20186;-85
2020/12/19 05:22:25;;;;;;;21.07;12.23;;;;;;;;;;4347405;33;20159;-86
2020/12/19 05:24:58;;;;;;;19.87;11.43;;;;;;;;;;4358866;32;20175;-85
2020/12/19 05:28:08;;;;;;;20.67;11.67;;;;;;;;;;4359894;32;20155;-85
2020/12/19 05:30:22;;;;;;;19.80;11.40;;;;;;;;;;4354027;33;20179;-84
2020/12/19 05:32:54;;;;;;;23.27;11.63;;;;;;;;;;4346682;32;20162;-85
2020/12/19 05:35:26;;;;;;;18.13;10.27;;;;;;;;;;4360150;33;20257;-84
2020/12/19 05:38:01;;;;;;;21.87;12.50;;;;;;;;;;4347248;33;20201;-83
2020/12/19 05:40:36;;;;;;;16.43;9.63;;;;;;;;;;4347442;33;20189;-83
2020/12/19 05:43:06;;;;;;;19.43;11.57;;;;;;;;;;4347407;33;20177;-85
2020/12/19 05:45:42;;;;;;;17.20;10.37;;;;;;;;;;4346347;33;20189;-85
2020/12/19 05:48:10;;;;;;;19.03;10.80;;;;;;;;;;4347219;33;20212;-85
2020/12/19 05:50:40;;;;;;;21.37;11.07;;;;;;;;;;4344999;33;20151;-85
2020/12/19 05:53:13;;;;;;;19.37;10.47;;;;;;;;;;4346800;33;20155;-85
2020/12/19 05:55:43;;;;;;;17.80;10.30;;;;;;;;;;4346212;33;20163;-85
2020/12/19 05:58:09;;;;;;;14.07;9.67;;;;;;;;;;4346286;33;20181;-85
2020/12/19 06:00:37;;;;;;;17.13;10.03;;;;;;;;;;4346505;33;20159;-85
2020/12/19 06:03:17;;;;;;;;;;;;;;;;;;;;;
2020/12/19 06:05:43;;;;;;;16.07;9.20;;;;;;;;;;4360627;33;20131;-85
2020/12/19 06:08:11;;;;;;;17.60;10.83;;;;;;;;;;4346207;33;20186;-85
2020/12/19 06:10:37;;;;;;;18.87;10.23;;;;;;;;;;4346337;33;20162;-85
2020/12/19 06:13:05;;;;;;;17.30;9.83;;;;;;;;;;4346317;33;20666;-85
2020/12/19 06:15:49;;;;;;;17.50;9.83;;;;;;;;;;4346037;33;20470;-85
2020/12/19 06:18:28;;;;;;;16.40;10.50;;;;;;;;;;4346555;33;20190;-85
2020/12/19 06:20:54;;;;;;;18.17;10.27;;;;;;;;;;4346139;33;20163;-85
2020/12/19 06:23:23;;;;;;;17.57;10.53;;;;;;;;;;4346451;33;20233;-86
2020/12/19 06:25:53;;;;;;;18.33;10.43;;;;;;;;;;4346103;33;20534;-86
2020/12/19 06:28:45;;;;;;;17.40;10.87;;;;;;;;;;4360468;33;20142;-85
2020/12/19 06:31:14;;;;;;;19.20;11.37;;;;;;;;;;4346384;33;20190;-85
2020/12/19 06:33:46;;;;;;;19.13;10.70;;;;;;;;;;4346352;33;20166;-85
2020/12/19 06:36:30;;;;;;;19.70;12.50;;;;;;;;;;4347665;33;20167;-85
2020/12/19 06:38:55;;;;;;;19.53;10.70;;;;;;;;;;4348739;33;20324;-85
2020/12/19 06:41:42;;;;;;;23.90;11.57;;;;;;;;;;4349865;33;20604;-85
2020/12/19 06:44:32;;;;;;;18.00;10.93;;;;;;;;;;4349897;33;20614;-85
2020/12/19 06:47:02;;;;;;;19.63;11.70;;;;;;;;;;4349295;33;20236;-84
2020/12/19 06:49:33;;;;;;;23.62;12.52;;;;;;;;;;4348600;33;20647;-84
2020/12/19 06:52:16;;;;;;;20.13;11.80;;;;;;;;;;4349399;33;20171;-84
2020/12/19 06:54:47;;;;;;;19.60;12.10;;;;;;;;;;4348799;33;20158;-84
2020/12/19 06:57:32;;;;;;;21.63;12.37;;;;;;;;;;4342823;33;20167;-85
2020/12/19 07:00:16;;;;;;;24.17;14.07;;;;;;;;;;4348616;33;20187;-84
2020/12/19 07:02:51;;;;;;;21.90;11.87;;;;;;;;;;4348116;33;20532;-84
2020/12/19 07:05:27;;;;;;;23.37;12.80;;;;;;;;;;4348964;33;20162;-84
2020/12/19 07:07:58;;;;;;;23.53;12.30;;;;;;;;;;4348466;33;20151;-84
2020/12/19 07:10:44;;;;;;;24.70;11.80;;;;;;;;;;4348932;33;20182;-84
2020/12/19 07:13:21;;;;;;;21.47;12.60;;;;;;;;;;4348423;33;20155;-85
2020/12/19 07:15:56;;;;;;;23.67;13.10;;;;;;;;;;4348964;33;20178;-85
2020/12/19 07:18:38;;;;;;;23.97;13.10;;;;;;;;;;4348572;33;20189;-85
2020/12/19 07:21:07;;;;;;;24.27;12.90;;;;;;;;;;4348599;33;20229;-85
2020/12/19 07:23:33;;;;;;;21.57;12.70;;;;;;;;;;4348791;33;20193;-85
2020/12/19 07:26:04;;;;;;;20.70;12.33;;;;;;;;;;4348044;33;20315;-85
2020/12/19 07:28:35;;;;;;;22.23;13.23;;;;;;;;;;4348131;33;20227;-86
2020/12/19 07:31:00;;;;;;;20.37;11.70;;;;;;;;;;4362136;33;20170;-84
2020/12/19 07:33:26;;;;;;;25.50;13.50;;;;;;;;;;4348511;33;20186;-85
2020/12/19 07:35:51;;;;;;;25.23;14.30;;;;;;;;;;4348715;33;20181;-85
2020/12/19 07:38:22;;;;;;;21.23;12.60;;;;;;;;;;4348189;33;20278;-85
2020/12/19 07:41:03;;;;;;;24.90;14.20;;;;;;;;;;4348232;33;20163;-86
2020/12/19 07:43:53;;;;;;;;;;;;;;;;;;;;;
2020/12/19 07:46:27;;;;;;;22.93;14.23;;;;;;;;;;4362287;33;20139;-85
2020/12/19 07:48:58;;;;;;;27.37;14.77;;;;;;;;;;4346644;33;20155;-85
2020/12/19 07:51:26;;;;;;;25.43;14.33;;;;;;;;;;4347655;33;20226;-85
2020/12/19 07:53:57;;;;;;;26.23;13.10;;;;;;;;;;4361715;32;20182;-85
2020/12/19 07:56:31;;;;;;;27.00;15.30;;;;;;;;;;4348028;33;20193;-85
2020/12/19 07:58:59;;;;;;;24.02;12.98;;;;;;;;;;4347855;33;20222;-85
2020/12/19 08:01:27;;;;;;;28.63;14.27;;;;;;;;;;4347725;33;20187;-85
2020/12/19 08:04:01;;;;;;;26.15;13.98;;;;;;;;;;4361362;32;20162;-85
2020/12/19 08:06:39;;;;;;;25.63;14.27;;;;;;;;;;4347607;33;20240;-85
2020/12/19 08:09:07;;;;;;;24.73;14.23;;;;;;;;;;4361973;32;20181;-86
2020/12/19 08:11:42;;;;;;;26.00;14.67;;;;;;;;;;4348091;33;20209;-86
2020/12/19 08:17:37;;;;;;;24.87;13.60;;;;;;;;;;4347678;33;20163;-86
2020/12/19 08:20:08;;;;;;;24.57;13.40;;;;;;;;;;4347372;33;20155;-84
2020/12/19 08:22:40;;;;;;;27.95;15.05;;;;;;;;;;4347564;33;20230;-85
2020/12/19 08:25:17;;;;;;;30.17;16.17;;;;;;;;;;4348864;33;20155;-85
2020/12/19 08:27:44;;;;;;;30.70;15.73;;;;;;;;;;4349249;33;20159;-85
2020/12/19 08:30:15;;;;;;;27.52;14.43;;;;;;;;;;4350679;33;20167;-86
2020/12/19 08:32:44;;;;;;;28.77;15.17;;;;;;;;;;4348298;33;20221;-85
2020/12/19 08:35:09;;;;;;;24.90;13.73;;;;;;;;;;4347180;33;20171;-86
2020/12/19 08:37:35;;;;;;;29.20;15.20;;;;;;;;;;4347102;33;20213;-87
2020/12/19 08:40:10;;;;;;;23.00;13.77;;;;;;;;;;4347052;33;20216;-85
2020/12/19 08:42:36;;;;;;;25.33;13.87;;;;;;;;;;4347683;33;20163;-86
2020/12/19 08:45:15;;;;;;;23.58;13.23;;;;;;;;;;4347175;33;20183;-85
2020/12/19 08:47:43;;;;;;;25.10;13.30;;;;;;;;;;4361045;32;20197;-85
2020/12/19 08:50:08;;;;;;;24.33;13.30;;;;;;;;;;4347352;33;20158;-85
2020/12/19 08:52:36;;;;;;;23.77;13.80;;;;;;;;;;4349410;33;20204;-86
2020/12/19 08:55:02;;;;;;;22.83;12.93;;;;;;;;;;4349884;33;20158;-85
2020/12/19 08:57:29;;;;;;;23.08;12.75;;;;;;;;;;4347289;33;20159;-85
2020/12/19 09:00:18;;;;;;;22.77;12.93;;;;;;;;;;4347269;33;20155;-86
2020/12/19 09:02:44;;;;;;;21.05;12.73;;;;;;;;;;4347165;33;20217;-86
2020/12/19 09:05:29;;;;;;;19.37;11.43;;;;;;;;;;4347370;33;20186;-87
2020/12/19 09:07:58;;;;;;;18.77;12.13;;;;;;;;;;4334847;33;20162;-85
2020/12/19 09:10:26;;;;;;;20.67;11.18;;;;;;;;;;4346624;33;20228;-86
2020/12/19 09:13:13;;;;;;;18.10;10.38;;;;;;;;;;4346620;33;20159;-86
2020/12/19 09:15:39;;;;;;;20.67;10.23;;;;;;;;;;4346437;33;20575;-86
2020/12/19 09:18:18;;;;;;;15.20;9.55;;;;;;;;;;4346467;33;20252;-86
2020/12/19 09:20:46;;;;;;;16.12;9.55;;;;;;;;;;4346586;33;20159;-86
2020/12/19 09:23:12;;;;;;;13.88;8.80;;;;;;;;;;4360081;32;20183;-85
2020/12/19 09:25:53;;;;;;;14.23;9.02;;;;;;;;;;4347181;33;20585;-85
2020/12/19 09:28:24;;;;;;;16.30;9.00;;;;;;;;;;4346269;33;20158;-84
2020/12/19 09:30:50;;;;;;;14.60;8.85;;;;;;;;;;4347668;33;20159;-83
2020/12/19 09:33:15;;;;;;;15.05;8.50;;;;;;;;;;4348445;33;20202;-85
2020/12/19 09:35:41;;;;;;;12.45;8.25;;;;;;;;;;4346574;33;20592;-86
2020/12/19 09:38:09;;;;;;;13.70;8.20;;;;;;;;;;4346524;33;20178;-86
2020/12/19 09:40:35;;;;;;;13.98;8.55;;;;;;;;;;4346421;33;20158;-85
2020/12/19 09:43:00;;;;;;;15.07;8.63;;;;;;;;;;4346426;33;20233;-84
2020/12/19 09:45:25;;;;;;;12.10;7.85;;;;;;;;;;4346420;33;20171;-84
2020/12/19 09:47:57;;;;;;;12.88;7.90;;;;;;;;;;4346320;33;20575;-85
2020/12/19 09:50:23;;;;;;;11.57;7.85;;;;;;;;;;4346568;33;20155;-85
2020/12/19 09:52:49;;;;;;;25.40;15.45;;;;;;;;;;4346453;33;20174;-85
2020/12/19 09:55:14;;;;;;;26.90;16.98;;;;;;;;;;4344017;33;20163;-84
2020/12/19 09:57:43;;;;;;;14.15;8.10;;;;;;;;;;4331752;33;20189;-86
2020/12/19 10:00:09;;;;;;;12.50;7.90;;;;;;;;;;4333987;33;20289;-86
2020/12/19 10:02:34;;;;;;;15.07;8.40;;;;;;;;;;4338756;33;20163;-86
2020/12/19 10:05:03;;;;;;;12.65;8.63;;;;;;;;;;4345729;33;20190;-86
2020/12/19 10:07:34;;;;;;;14.02;7.97;;;;;;;;;;4353434;33;20163;-85
2020/12/19 10:10:08;;;;;;;14.23;7.85;;;;;;;;;;4351756;33;20155;-85
2020/12/19 10:12:34;;;;;;;11.15;7.60;;;;;;;;;;4347466;33;20166;-85
2020/12/19 10:15:15;;;;;;;10.23;7.43;;;;;;;;;;4348125;33;20178;-85
2020/12/19 10:17:44;;;;;;;10.57;6.97;;;;;;;;;;4349704;33;20559;-84
2020/12/19 10:20:09;;;;;;;11.77;7.03;;;;;;;;;;4349888;33;20189;-85
2020/12/19 10:22:35;;;;;;;13.60;8.10;;;;;;;;;;4349685;33;20159;-86
2020/12/19 10:25:03;;;;;;;11.88;7.12;;;;;;;;;;4349542;33;20198;-85
2020/12/19 10:27:34;;;;;;;11.57;7.20;;;;;;;;;;4359668;32;20190;-84
2020/12/19 10:29:59;;;;;;;13.23;7.85;;;;;;;;;;4349220;32;20221;-84
2020/12/19 10:32:25;;;;;;;10.68;6.72;;;;;;;;;;4349029;32;20310;-84
2020/12/19 10:34:56;;;;;;;10.18;6.57;;;;;;;;;;4353975;33;20640;-84
2020/12/19 10:37:27;;;;;;;15.38;7.43;;;;;;;;;;4349061;33;20201;-85
2020/12/19 10:39:53;;;;;;;10.07;6.00;;;;;;;;;;4348452;33;20159;-85
2020/12/19 10:42:25;;;;;;;9.55;6.25;;;;;;;;;;4349198;33;20194;-86
2020/12/19 10:44:54;;;;;;;10.60;6.43;;;;;;;;;;4348585;33;20199;-86
2020/12/19 10:47:27;;;;;;;9.80;5.90;;;;;;;;;;4345952;33;20222;-86
2020/12/19 10:49:56;;;;;;;11.20;6.62;;;;;;;;;;4345920;33;20585;-85
2020/12/19 10:52:21;;;;;;;9.77;6.40;;;;;;;;;;4346435;33;20267;-84
2020/12/19 10:54:49;;;;;;;12.10;5.65;;;;;;;;;;4346647;33;20508;-85
2020/12/19 10:57:26;;;;;;;10.02;5.75;;;;;;;;;;4345818;33;20182;-85
2020/12/19 10:59:51;;;;;;;8.88;5.10;;;;;;;;;;4345962;33;20253;-85
2020/12/19 11:02:19;;;;;;;9.43;4.82;;;;;;;;;;4346404;33;20480;-85
2020/12/19 11:04:47;;;;;;;7.87;4.95;;;;;;;;;;4345696;33;20619;-85
2020/12/19 11:07:13;;;;;;;7.53;5.00;;;;;;;;;;4351180;33;20580;-84
2020/12/19 11:09:38;;;;;;;10.30;5.10;;;;;;;;;;4348249;33;20611;-85
2020/12/19 11:12:03;;;;;;;7.55;4.68;;;;;;;;;;4348330;33;20567;-85
2020/12/19 11:14:31;;;;;;;7.78;4.70;;;;;;;;;;4348216;33;20214;-84
2020/12/19 11:16:57;;;;;;;7.75;4.78;;;;;;;;;;4348657;33;20222;-85
2020/12/19 11:19:22;;;;;;;7.82;4.80;;;;;;;;;;4348756;33;20185;-85
2020/12/19 11:21:49;;;;;;;6.45;4.37;;;;;;;;;;4348335;33;20167;-85
2020/12/19 11:24:14;;;;;;;8.20;5.05;;;;;;;;;;4347967;33;20167;-84
2020/12/19 11:26:40;;;;;;;8.77;4.80;;;;;;;;;;4347745;33;20215;-84
2020/12/19 11:29:06;;;;;;;7.80;4.57;;;;;;;;;;4347578;33;20184;-84
2020/12/19 11:31:32;;;;;;;6.97;4.47;;;;;;;;;;4348132;33;20194;-85
2020/12/19 11:33:58;;;;;;;8.30;4.95;;;;;;;;;;4347937;33;20224;-85
2020/12/19 11:36:26;;;;;;;11.90;4.65;;;;;;;;;;4347859;33;20167;-85
2020/12/19 11:38:53;;;;;;;6.40;4.62;;;;;;;;;;4347972;33;20190;-84
2020/12/19 11:41:27;;;;;;;7.43;4.28;;;;;;;;;;4347407;33;20186;-83
2020/12/19 11:43:53;;;;;;;8.15;4.72;;;;;;;;;;4348009;33;20167;-85
2020/12/19 11:46:27;;;;;;;8.07;4.47;;;;;;;;;;4348462;33;20155;-85
2020/12/19 11:48:53;;;;;;;8.15;4.80;;;;;;;;;;4347579;33;20177;-75
2020/12/19 11:51:24;;;;;;;6.53;4.30;;;;;;;;;;4347566;33;20489;-75
2020/12/19 11:53:50;;;;;;;8.45;3.92;;;;;;;;;;4361946;32;20186;-76
2020/12/19 11:56:15;;;;;;;6.43;4.15;;;;;;;;;;4347237;33;20171;-76
2020/12/19 11:58:40;;;;;;;6.10;3.97;;;;;;;;;;4347838;33;20623;-76
2020/12/19 12:01:07;;;;;;;5.87;3.80;;;;;;;;;;4347182;33;20698;-76
2020/12/19 12:03:32;;;;;;;8.73;3.67;;;;;;;;;;4361313;32;20139;-76
2020/12/19 12:05:58;;;;;;;6.28;3.60;;;;;;;;;;4347094;33;20253;-76
2020/12/19 12:08:26;;;;;;;7.90;3.78;;;;;;;;;;4347202;33;20629;-76
2020/12/19 12:10:51;;;;;;;5.93;3.40;;;;;;;;;;4347429;33;20198;-75
2020/12/19 12:13:16;;;;;;;4.53;2.90;;;;;;;;;;4360853;32;20501;-76
2020/12/19 12:15:41;;;;;;;5.10;3.33;;;;;;;;;;4342508;33;20198;-76
2020/12/19 12:18:07;;;;;;;5.07;3.60;;;;;;;;;;4336252;33;20163;-76
2020/12/19 12:20:32;;;;;;;5.03;2.95;;;;;;;;;;4356738;32;20147;-76
2020/12/19 12:22:57;;;;;;;6.15;3.33;;;;;;;;;;4359096;32;20174;-76
2020/12/19 12:25:22;;;;;;;4.75;3.20;;;;;;;;;;4348853;32;20186;-75
2020/12/19 12:27:47;;;;;;;7.03;3.58;;;;;;;;;;4363669;32;20886;-75
2020/12/19 12:30:13;;;;;;;4.75;2.80;;;;;;;;;;4345530;33;20504;-76
2020/12/19 12:32:38;;;;;;;5.85;3.60;;;;;;;;;;4344728;33;20647;-76
2020/12/19 12:35:03;;;;;;;6.57;3.78;;;;;;;;;;4345245;33;20600;-75
2020/12/19 12:37:28;;;;;;;7.65;3.50;;;;;;;;;;4346073;33;20219;-75
2020/12/19 12:39:54;;;;;;;4.87;3.42;;;;;;;;;;4345666;33;20534;-75
2020/12/19 12:42:20;;;;;;;6.78;3.30;;;;;;;;;;4346069;33;20602;-75
2020/12/19 12:44:46;;;;;;;4.90;3.50;;;;;;;;;;4346494;33;20195;-76
2020/12/19 12:47:11;;;;;;;3.95;3.12;;;;;;;;;;4360231;32;20154;-75
2020/12/19 12:49:36;;;;;;;6.72;3.70;;;;;;;;;;4359956;32;20131;-75
2020/12/19 12:52:01;;;;;;;7.07;3.50;;;;;;;;;;4360267;32;20161;-75
2020/12/19 12:54:27;;;;;;;6.15;4.28;;;;;;;;;;4346527;33;20217;-75
2020/12/19 12:56:52;;;;;;;6.82;4.07;;;;;;;;;;4359750;32;20143;-75
2020/12/19 12:59:18;;;;;;;7.10;4.18;;;;;;;;;;4346727;33;20577;-75
2020/12/19 13:01:43;;;;;;;7.37;4.32;;;;;;;;;;4360206;32;20610;-75
2020/12/19 13:04:08;;;;;;;6.80;4.05;;;;;;;;;;4359900;32;20497;-75
2020/12/19 13:06:34;;;;;;;6.35;3.90;;;;;;;;;;4346650;33;20178;-75
2020/12/19 13:08:59;;;;;;;7.45;4.50;;;;;;;;;;4360072;33;20139;-75
2020/12/19 13:11:24;;;;;;;8.40;4.25;;;;;;;;;;4358642;32;20221;-76
2020/12/19 13:13:50;;;;;;;6.93;4.47;;;;;;;;;;4346155;32;20175;-75
2020/12/19 13:16:15;;;;;;;7.68;4.37;;;;;;;;;;4345988;33;20170;-76
2020/12/19 13:18:41;;;;;;;8.98;6.30;;;;;;;;;;4345798;33;20233;-76
2020/12/19 13:21:06;;;;;;;7.10;4.70;;;;;;;;;;4359530;32;20151;-75
2020/12/19 13:23:31;;;;;;;6.22;4.53;;;;;;;;;;4364061;32;20169;-75
2020/12/19 13:25:56;;;;;;;7.47;4.78;;;;;;;;;;4360473;32;20586;-75
2020/12/19 13:28:22;;;;;;;7.15;4.78;;;;;;;;;;4365779;32;20170;-75
2020/12/19 13:30:47;;;;;;;8.10;4.50;;;;;;;;;;4360264;32;20443;-75
2020/12/19 13:33:12;;;;;;;9.63;4.47;;;;;;;;;;4359278;32;20182;-76
2020/12/19 13:35:38;;;;;;;5.72;4.53;;;;;;;;;;4359445;32;20222;-76
2020/12/19 13:38:03;;;;;;;6.40;4.72;;;;;;;;;;4359904;32;20625;-75
2020/12/19 13:40:28;;;;;;;5.47;4.20;;;;;;;;;;4359751;32;20201;-76
2020/12/19 13:42:53;;;;;;;5.65;4.15;;;;;;;;;;4345714;33;20155;-77
2020/12/19 13:45:19;;;;;;;6.62;4.22;;;;;;;;;;4359898;33;20205;-76
2020/12/19 13:47:44;;;;;;;5.80;3.90;;;;;;;;;;4346287;32;20160;-76
2020/12/19 13:50:12;;;;;;;8.57;4.43;;;;;;;;;;4362763;32;20151;-76
2020/12/19 13:52:38;;;;;;;5.50;4.15;;;;;;;;;;4362491;32;20212;-76
2020/12/19 13:55:06;;;;;;;5.07;3.60;;;;;;;;;;4362487;32;20592;-76
2020/12/19 13:57:33;;;;;;;7.55;4.00;;;;;;;;;;4362357;32;20163;-76
2020/12/19 13:59:58;;;;;;;6.03;4.10;;;;;;;;;;4362393;32;20147;-76
2020/12/19 14:02:23;;;;;;;7.95;4.45;;;;;;;;;;4362676;32;20197;-76
2020/12/19 14:04:49;;;;;;;8.82;4.30;;;;;;;;;;4362383;32;20498;-76
2020/12/19 14:07:14;;;;;;;6.12;3.85;;;;;;;;;;4349808;33;20186;-76
2020/12/19 14:09:39;;;;;;;4.95;3.70;;;;;;;;;;4362472;32;20139;-76
2020/12/19 14:12:06;;;;;;;6.93;4.25;;;;;;;;;;4362600;32;20527;-76
2020/12/19 14:14:31;;;;;;;6.35;5.18;;;;;;;;;;4362208;32;20257;-76
2020/12/19 14:17:00;;;;;;;5.15;3.97;;;;;;;;;;4362329;32;20170;-76
2020/12/19 14:19:26;;;;;;;5.37;3.67;;;;;;;;;;4362963;32;20161;-76
2020/12/19 14:21:51;;;;;;;4.85;3.65;;;;;;;;;;4369354;32;20155;-76
2020/12/19 14:24:19;;;;;;;6.55;4.00;;;;;;;;;;4362102;33;20150;-76
2020/12/19 14:26:44;;;;;;;4.70;3.75;;;;;;;;;;4362900;32;20193;-76
2020/12/19 14:29:10;;;;;;;6.75;3.65;;;;;;;;;;4362304;32;20159;-76
2020/12/19 14:31:35;;;;;;;9.93;4.50;;;;;;;;;;4362044;32;20222;-76
2020/12/19 14:34:00;;;;;;;6.37;3.67;;;;;;;;;;4362295;32;20190;-76
2020/12/19 14:36:26;;;;;;;7.87;3.90;;;;;;;;;;4362785;32;20169;-76
2020/12/19 14:38:52;;;;;;;4.82;3.97;;;;;;;;;;4362370;32;20143;-75
2020/12/19 14:41:18;;;;;;;4.97;3.40;;;;;;;;;;4362451;32;20158;-76
2020/12/19 14:43:43;;;;;;;5.10;3.70;;;;;;;;;;4361718;32;20139;-76
2020/12/19 14:46:12;;;;;;;5.87;3.70;;;;;;;;;;4362367;32;20152;-76
2020/12/19 14:48:37;;;;;;;8.63;4.22;;;;;;;;;;4354376;32;20577;-76
2020/12/19 14:51:03;;;;;;;6.72;4.12;;;;;;;;;;4347441;33;20147;-76
2020/12/19 14:53:30;;;;;;;6.00;3.65;;;;;;;;;;4361737;32;20618;-75
2020/12/19 14:55:56;;;;;;;6.45;3.78;;;;;;;;;;4361940;32;20557;-76
2020/12/19 14:58:21;;;;;;;6.25;4.07;;;;;;;;;;4363616;32;20205;-76